This is the latest recevied weather packets stored in our database for station/object K8RRT. If no packets are shown the sender has not sent any weather packets the latest 10 day(s).
| Time | Temp. | Humidity | Pressure | Rain* | Wind** | Luminosity | Snow |
|---|---|---|---|---|---|---|---|
| 1787953386 | 28.89° C | 58% | 1014.2 hPa | 0 mm | - | 281 W/m² | - |
| 1787953084 | 28.89° C | 58% | 1013.9 hPa | 0 mm | - | 272 W/m² | - |
| 1787952778 | 28.89° C | 58% | 1014.1 hPa | 0 mm | - | 300 W/m² | - |
| 1787952477 | 28.89° C | 60% | 1014.1 hPa | 0 mm | - | 324 W/m² | - |
| 1787952175 | 28.89° C | 61% | 1014.1 hPa | 0 mm | - | 364 W/m² | - |
| 1787951867 | 28.89° C | 61% | 1014.2 hPa | 0 mm | - | 367 W/m² | - |
| 1787951564 | 28.89° C | 62% | 1014.2 hPa | 0 mm | - | 399 W/m² | - |
| 1787951260 | 29.44° C | 62% | 1014 hPa | 0 mm | - | 379 W/m² | - |
| 1787950955 | 28.89° C | 61% | 1014 hPa | 0 mm | - | 414 W/m² | - |
| 1787950651 | 28.89° C | 60% | 1014.3 hPa | 0 mm | - | 439 W/m² | - |
| 1787950347 | 29.44° C | 59% | 1014.2 hPa | 0 mm | - | 481 W/m² | - |
| 1787950042 | 28.89° C | 59% | 1014.2 hPa | 0 mm | - | 464 W/m² | - |
| 1787949738 | 28.89° C | 59% | 1014.2 hPa | 0 mm | - | 500 W/m² | - |
| 1787949437 | 28.33° C | 60% | 1014.1 hPa | 0 mm | - | 507 W/m² | - |
| 1787949132 | 28.33° C | 64% | 1014.4 hPa | 0 mm | - | 512 W/m² | - |
| 1787948829 | 28.89° C | 65% | 1014.2 hPa | 0 mm | - | 467 W/m² | - |
| 1787948528 | 28.33° C | 65% | 1014 hPa | 0 mm | - | 200 W/m² | - |
| 1787948224 | 29.44° C | 60% | 1014.2 hPa | 0 mm | - | 585 W/m² | - |
| 1787947922 | 28.89° C | 60% | 1014.3 hPa | 0 mm | - | 560 W/m² | - |
| 1787947618 | 29.44° C | 58% | 1014.3 hPa | 0 mm | - | 540 W/m² | - |
| 1787947316 | 28.89° C | 61% | 1014.1 hPa | 0 mm | - | 546 W/m² | - |
| 1787947016 | 28.89° C | 62% | 1014.4 hPa | 0 mm | - | 565 W/m² | - |
| 1787946714 | 28.89° C | 60% | 1014.4 hPa | 0 mm | - | 580 W/m² | - |
| 1787946409 | 28.33° C | 60% | 1014.5 hPa | 0 mm | - | 589 W/m² | - |
| 1787946104 | 27.78° C | 62% | 1014.4 hPa | 0 mm | - | 114 W/m² | - |
* Rain latest hour (hover to see other rain measurements)
** Current wind speed in m/s (hover to see current wind gust speed)